Time;durP1;ratioP1;P1;durP2;ratioP2;P2;SDS_P1;SDS_P2;PMS_P1;PMS_P2;Temp;Humidity;BMP_temperature;BMP_pressure;BME280_temperature;BME280_humidity;BME280_pressure;Samples;Min_cycle;Max_cycle;Signal;HPM_P1;HPM_P2
2022/01/22 00:03:20;;;;;;;1.83;0.98;;;17.90;56.40;;;;;;10487061;28;20028;-59
2022/01/22 00:08:20;;;;;;;2.10;0.98;;;18.00;56.30;;;;;;10496703;28;20459;-58
2022/01/22 00:18:51;;;;;;;2.35;1.05;;;17.90;56.40;;;;;;10482965;28;20036;-58
2022/01/22 00:23:56;;;;;;;2.42;0.80;;;17.90;56.30;;;;;;10519372;28;20028;-58
2022/01/22 00:28:57;;;;;;;2.53;1.00;;;17.90;56.50;;;;;;10482775;28;20085;-58
2022/01/22 00:33:58;;;;;;;2.05;1.00;;;17.90;56.40;;;;;;10491509;28;20124;-58
2022/01/22 00:38:59;;;;;;;2.33;0.70;;;17.90;56.40;;;;;;10503296;28;20071;-58
2022/01/22 00:44:00;;;;;;;1.58;0.80;;;17.90;56.40;;;;;;10484991;28;20025;-58
2022/01/22 00:49:02;;;;;;;3.33;1.17;;;17.90;56.30;;;;;;10489566;28;20089;-59
2022/01/22 00:54:03;;;;;;;1.60;0.90;;;18.00;56.10;;;;;;10508335;28;20119;-59
2022/01/22 00:59:04;;;;;;;1.92;0.90;;;18.00;55.90;;;;;;10494421;28;20107;-58
2022/01/22 01:04:08;;;;;;;4.25;1.17;;;18.00;55.90;;;;;;10522826;28;20024;-58
2022/01/22 01:09:10;;;;;;;1.63;0.70;;;18.00;56.10;;;;;;10489831;28;20037;-59
2022/01/22 01:14:17;;;;;;;1.73;0.80;;;18.00;56.20;;;;;;10509890;28;20052;-58
2022/01/22 01:35:16;;;;;;;1.50;0.80;;;17.90;56.30;;;;;;10515480;28;20044;-58
2022/01/22 01:40:20;;;;;;;3.15;1.27;;;17.90;56.30;;;;;;10489293;28;20016;-58
2022/01/22 01:45:20;;;;;;;3.55;0.70;;;17.90;56.30;;;;;;10529748;28;20028;-57
2022/01/22 01:50:21;;;;;;;1.50;0.80;;;17.90;56.40;;;;;;10487701;28;20025;-58
2022/01/22 01:55:34;;;;;;;1.67;0.63;;;17.90;56.30;;;;;;10485732;28;20032;-58
2022/01/22 02:00:34;;;;;;;2.60;0.90;;;17.90;55.90;;;;;;10515273;28;20026;-59
2022/01/22 02:05:36;;;;;;;4.03;0.80;;;17.90;56.10;;;;;;10542408;28;20398;-58
2022/01/22 02:10:43;;;;;;;1.83;0.70;;;18.00;56.00;;;;;;10511254;28;20035;-58
2022/01/22 02:26:23;;;;;;;3.55;0.90;;;18.00;55.90;;;;;;10484516;28;20036;-58
2022/01/22 02:31:41;;;;;;;2.22;0.70;;;18.00;55.90;;;;;;10494813;28;20041;-58
2022/01/22 02:41:47;;;;;;;2.22;0.75;;;18.00;55.90;;;;;;10523941;28;20450;-58
2022/01/22 02:46:50;;;;;;;2.83;0.80;;;17.90;56.70;;;;;;10498728;28;20070;-59
2022/01/22 02:51:51;;;;;;;2.10;0.70;;;18.00;55.90;;;;;;10515214;28;20020;-58
2022/01/22 02:56:52;;;;;;;1.75;0.63;;;17.90;56.00;;;;;;10522613;28;20082;-59
2022/01/22 03:01:54;;;;;;;2.97;0.73;;;18.00;55.90;;;;;;10518070;28;20103;-58
2022/01/22 03:06:55;;;;;;;3.10;0.80;;;18.00;55.90;;;;;;10508259;28;20024;-58
2022/01/22 03:12:20;;;;;;;2.47;0.70;;;18.00;55.90;;;;;;10463804;28;20484;-58
2022/01/22 03:22:43;;;;;;;2.60;0.85;;;18.00;55.90;;;;;;10508683;28;20471;-58
2022/01/22 03:27:44;;;;;;;2.08;0.63;;;17.90;55.90;;;;;;10478894;28;20375;-58
2022/01/22 03:32:52;;;;;;;1.83;0.68;;;18.00;55.90;;;;;;10516368;28;20067;-58
2022/01/22 03:37:56;;;;;;;1.60;0.57;;;17.90;55.90;;;;;;10487892;28;20032;-58
2022/01/22 03:42:57;;;;;;;1.27;0.60;;;17.90;55.80;;;;;;10521524;28;20063;-58
2022/01/22 03:47:58;;;;;;;2.67;0.80;;;18.00;55.90;;;;;;10519554;28;20688;-58
2022/01/22 03:52:58;;;;;;;2.95;0.70;;;18.00;55.90;;;;;;10478672;28;20507;-58
2022/01/22 03:58:01;;;;;;;1.67;0.90;;;18.00;55.90;;;;;;10472351;28;20376;-58
2022/01/22 04:08:21;;;;;;;1.33;0.68;;;17.90;55.90;;;;;;10513120;28;20127;-58
2022/01/22 04:13:29;;;;;;;2.10;0.73;;;18.00;55.90;;;;;;10507428;28;20481;-58
2022/01/22 04:29:08;;;;;;;2.17;0.90;;;18.00;55.90;;;;;;10489414;28;20056;-58
2022/01/22 04:34:09;;;;;;;1.15;0.68;;;18.00;55.70;;;;;;10481211;28;20412;-58
2022/01/22 04:39:11;;;;;;;2.00;0.60;;;18.00;55.90;;;;;;10493519;28;20047;-58
2022/01/22 04:44:13;;;;;;;1.70;1.00;;;18.00;55.80;;;;;;10519643;28;20032;-56
2022/01/22 04:52:29;;;;;;;2.33;0.77;;;18.00;55.90;;;;;;10537264;28;20028;-58
2022/01/22 04:59:54;;;;;;;2.97;0.90;;;18.00;55.90;;;;;;10501827;28;20047;-58
2022/01/22 05:04:55;;;;;;;2.67;0.85;;;17.90;55.80;;;;;;10494474;28;20415;-57
2022/01/22 05:09:55;;;;;;;2.53;0.60;;;18.00;55.70;;;;;;10500369;28;20035;-58
2022/01/22 05:14:56;;;;;;;1.98;0.40;;;18.00;55.60;;;;;;10498914;28;20039;-58
2022/01/22 05:20:07;;;;;;;1.60;0.68;;;18.00;55.90;;;;;;10506749;28;20025;-58
2022/01/22 05:25:14;;;;;;;1.95;0.80;;;18.00;55.90;;;;;;10469459;28;20024;-58
2022/01/22 05:40:36;;;;;;;1.13;0.40;;;18.00;55.90;;;;;;10494701;28;20045;-58
2022/01/22 05:45:36;;;;;;;2.90;0.75;;;17.90;55.90;;;;;;10483906;28;20024;-58
2022/01/22 05:51:01;;;;;;;0.90;0.43;;;17.90;55.90;;;;;;10515469;28;20040;-58
2022/01/22 06:01:08;;;;;;;1.00;0.50;;;18.00;56.20;;;;;;10508837;28;20067;-59
2022/01/22 06:06:09;;;;;;;1.50;0.90;;;17.90;56.20;;;;;;10512714;28;20056;-58
2022/01/22 06:11:12;;;;;;;5.80;0.90;;;18.00;56.80;;;;;;10524202;28;20031;-58
2022/01/22 06:16:24;;;;;;;3.40;1.00;;;18.00;57.00;;;;;;10530887;28;20028;-58
2022/01/22 06:21:24;;;;;;;3.25;1.40;;;18.10;57.30;;;;;;10496253;28;20103;-60
2022/01/22 06:26:25;;;;;;;5.40;1.27;;;18.00;59.10;;;;;;10478390;28;20028;-60
2022/01/22 06:31:26;;;;;;;6.00;1.50;;;18.00;59.30;;;;;;10480072;28;20025;-59
2022/01/22 06:36:28;;;;;;;4.85;1.35;;;18.10;58.90;;;;;;10513059;28;20029;-57
2022/01/22 06:41:46;;;;;;;6.10;1.55;;;18.10;58.70;;;;;;10501015;28;20032;-61
2022/01/22 06:46:53;;;;;;;8.25;1.55;;;18.10;59.20;;;;;;10521325;28;20086;-57
2022/01/22 06:51:55;;;;;;;3.15;1.02;;;18.00;59.60;;;;;;10499011;28;20385;-57
2022/01/22 06:56:55;;;;;;;8.30;1.35;;;17.90;59.20;;;;;;10494589;28;20041;-60
2022/01/22 07:01:56;;;;;;;6.10;1.30;;;17.90;59.30;;;;;;10507165;28;20030;-60
2022/01/22 07:06:58;;;;;;;14.93;2.60;;;17.90;59.10;;;;;;10523128;28;20024;-61
2022/01/22 07:11:58;;;;;;;10.35;1.63;;;18.00;59.00;;;;;;10521037;28;20020;-58
2022/01/22 07:16:59;;;;;;;18.40;2.75;;;17.90;59.50;;;;;;10504024;28;20063;-59
2022/01/22 07:22:08;;;;;;;10.98;1.98;;;18.00;59.70;;;;;;10518031;28;20483;-57
2022/01/22 07:27:09;;;;;;;10.85;1.77;;;18.10;59.40;;;;;;10522967;28;20029;-60
2022/01/22 07:32:17;;;;;;;15.00;1.83;;;18.00;59.80;;;;;;10525462;28;20050;-59
2022/01/22 07:37:18;;;;;;;12.05;1.50;;;18.00;59.80;;;;;;10512476;28;20028;-59
2022/01/22 07:42:18;;;;;;;12.25;1.40;;;18.00;59.90;;;;;;10522675;28;20431;-59
2022/01/22 07:47:19;;;;;;;5.90;1.85;;;18.00;59.60;;;;;;10488447;28;20381;-58
2022/01/22 07:52:20;;;;;;;13.55;1.63;;;18.00;59.30;;;;;;10492683;28;20038;-58
2022/01/22 07:57:21;;;;;;;6.40;1.67;;;17.90;59.30;;;;;;10504305;28;20028;-59
2022/01/22 08:02:21;;;;;;;6.55;0.95;;;17.80;59.40;;;;;;10523956;28;20383;-59
2022/01/22 08:07:22;;;;;;;6.55;1.13;;;17.80;59.30;;;;;;10507569;28;20564;-59
2022/01/22 08:12:23;;;;;;;4.50;1.25;;;17.80;59.30;;;;;;10518554;28;20518;-59
2022/01/22 08:17:24;;;;;;;6.80;1.30;;;17.80;59.40;;;;;;10504502;28;20464;-59
2022/01/22 08:22:25;;;;;;;3.60;1.10;;;17.80;59.00;;;;;;10502225;28;20602;-59
2022/01/22 08:37:29;;;;;;;4.72;1.15;;;17.80;58.70;;;;;;10529079;28;20131;-59
2022/01/22 08:42:30;;;;;;;3.95;1.10;;;17.80;58.90;;;;;;10507226;28;20090;-58
2022/01/22 08:47:31;;;;;;;3.63;1.27;;;17.80;58.70;;;;;;10513378;28;20033;-59
2022/01/22 08:52:35;;;;;;;2.28;1.10;;;17.80;58.60;;;;;;10504435;28;20033;-58
2022/01/22 08:57:37;;;;;;;4.50;0.85;;;17.80;58.80;;;;;;10506282;28;20537;-58
2022/01/22 09:02:38;;;;;;;4.75;1.10;;;17.70;58.70;;;;;;10488360;28;20025;-59
2022/01/22 09:07:39;;;;;;;5.60;1.20;;;17.80;58.90;;;;;;10508939;28;20032;-59
2022/01/22 09:12:40;;;;;;;5.57;1.75;;;17.80;60.40;;;;;;10504930;28;20043;-59
2022/01/22 09:17:46;;;;;;;6.55;1.33;;;17.90;59.40;;;;;;10506404;28;20024;-58
2022/01/22 09:22:48;;;;;;;5.00;0.80;;;17.80;59.30;;;;;;10486232;28;20033;-58
2022/01/22 09:27:48;;;;;;;4.45;1.48;;;17.70;59.40;;;;;;10515271;28;20032;-58
2022/01/22 09:32:49;;;;;;;9.25;1.60;;;17.60;59.50;;;;;;10535466;28;20048;-58
2022/01/22 09:37:50;;;;;;;5.75;1.58;;;17.60;60.20;;;;;;10512579;28;20467;-58
2022/01/22 09:42:51;;;;;;;6.63;1.38;;;17.80;59.60;;;;;;10525257;28;20040;-59
2022/01/22 09:47:51;;;;;;;3.97;1.27;;;17.80;59.70;;;;;;10467918;28;20361;-57
2022/01/22 09:52:53;;;;;;;3.70;1.10;;;17.80;59.70;;;;;;10527015;28;20036;-57
2022/01/22 09:57:55;;;;;;;7.57;1.35;;;17.80;59.90;;;;;;10466755;28;20028;-57
2022/01/22 10:02:57;;;;;;;7.00;1.20;;;17.80;59.90;;;;;;10480170;28;20029;-57
2022/01/22 10:08:31;;;;;;;9.55;2.22;;;17.90;59.70;;;;;;10516653;28;20024;-60
2022/01/22 10:13:50;;;;;;;8.30;1.67;;;17.70;59.90;;;;;;10501681;28;20566;-58
2022/01/22 10:19:15;;;;;;;12.93;2.00;;;17.60;60.00;;;;;;10483866;28;20029;-57
2022/01/22 10:29:53;;;;;;;5.20;1.20;;;17.70;59.50;;;;;;10540006;28;20691;-57
2022/01/22 10:35:29;;;;;;;5.57;1.00;;;17.70;59.50;;;;;;10490314;28;20066;-57
2022/01/22 10:40:32;;;;;;;3.00;0.90;;;17.70;59.50;;;;;;10406157;28;20515;-58
2022/01/22 10:45:33;;;;;;;6.30;2.47;;;17.70;59.30;;;;;;10497751;28;20039;-58
2022/01/22 10:50:34;;;;;;;7.97;1.17;;;17.70;59.30;;;;;;10499148;28;20029;-57
2022/01/22 10:55:59;;;;;;;3.50;1.35;;;17.80;59.20;;;;;;10494202;28;20032;-57
2022/01/22 11:01:05;;;;;;;4.43;1.88;;;17.70;59.20;;;;;;10465104;28;20488;-56
2022/01/22 11:06:22;;;;;;;4.20;1.05;;;17.70;59.10;;;;;;10504177;28;20037;-57
2022/01/22 11:11:24;;;;;;;5.45;1.63;;;17.80;59.00;;;;;;10466295;28;20032;-57
2022/01/22 11:16:26;;;;;;;4.57;1.33;;;17.70;59.70;;;;;;10493940;28;20020;-57
2022/01/22 11:21:26;;;;;;;5.65;1.27;;;17.70;58.90;;;;;;10480425;28;20048;-57
2022/01/22 11:26:29;;;;;;;4.22;1.10;;;17.80;58.80;;;;;;10463320;28;20028;-56
2022/01/22 11:31:31;;;;;;;4.20;1.15;;;17.70;58.70;;;;;;10480024;28;20036;-57
2022/01/22 11:37:20;;;;;;;4.63;1.10;;;17.70;58.70;;;;;;10507003;28;20035;-58
2022/01/22 11:42:22;;;;;;;4.63;1.23;;;17.80;58.60;;;;;;10520388;28;20069;-57
2022/01/22 11:47:25;;;;;;;5.53;1.55;;;17.70;58.50;;;;;;10516482;28;20027;-57
2022/01/22 11:52:30;;;;;;;4.25;1.52;;;17.70;58.80;;;;;;10520580;28;20053;-57
2022/01/22 11:57:32;;;;;;;3.15;1.02;;;17.70;58.70;;;;;;10480212;28;20032;-57
2022/01/22 12:02:32;;;;;;;3.60;1.00;;;17.70;58.60;;;;;;10492317;28;20064;-58
2022/01/22 12:07:36;;;;;;;4.13;1.30;;;17.70;58.40;;;;;;10503665;28;20025;-58
2022/01/22 12:18:01;;;;;;;4.72;2.42;;;17.70;58.30;;;;;;10480073;28;20032;-56
2022/01/22 12:23:09;;;;;;;2.88;1.20;;;17.70;58.20;;;;;;10479519;28;20055;-57
2022/01/22 12:28:31;;;;;;;3.88;1.00;;;17.70;58.20;;;;;;10496127;28;20135;-57
2022/01/22 12:33:32;;;;;;;2.63;1.05;;;17.70;58.10;;;;;;10522116;28;20053;-57
2022/01/22 12:43:43;;;;;;;2.17;0.95;;;17.70;58.10;;;;;;10509839;28;20044;-58
2022/01/22 12:48:48;;;;;;;2.50;0.95;;;17.70;58.00;;;;;;10477843;28;20074;-57
2022/01/22 12:53:49;;;;;;;2.45;1.00;;;17.70;58.10;;;;;;10491534;28;20060;-57
2022/01/22 12:58:50;;;;;;;1.67;0.75;;;17.80;58.00;;;;;;10515429;28;20029;-58
2022/01/22 13:03:53;;;;;;;5.05;1.13;;;17.80;57.90;;;;;;10534885;28;20038;-57
2022/01/22 13:08:58;;;;;;;3.15;1.10;;;17.70;58.00;;;;;;10492088;28;20361;-58
2022/01/22 13:14:00;;;;;;;3.50;1.38;;;17.80;58.00;;;;;;10491995;28;20393;-57
2022/01/22 13:19:01;;;;;;;4.03;1.33;;;17.80;58.00;;;;;;10508616;28;20485;-58
2022/01/22 13:24:11;;;;;;;3.30;0.80;;;17.80;58.00;;;;;;10506745;28;20029;-57
2022/01/22 13:29:37;;;;;;;;;;;17.80;57.90;;;;;;10530163;28;20111;-57
2022/01/22 13:35:22;;;;;;;2.25;1.10;;;17.80;57.90;;;;;;10511074;28;19920;-57
2022/01/22 13:40:46;;;;;;;6.50;1.48;;;17.80;57.90;;;;;;10516890;28;20024;-57
2022/01/22 13:50:55;;;;;;;2.93;0.93;;;17.80;57.90;;;;;;10492944;28;20094;-58
2022/01/22 13:56:16;;;;;;;4.22;1.40;;;17.80;58.00;;;;;;10510434;28;20033;-57
2022/01/22 14:01:32;;;;;;;2.80;1.13;;;17.80;58.00;;;;;;10518480;28;20111;-57
2022/01/22 14:06:34;;;;;;;4.43;1.20;;;17.80;57.90;;;;;;10497838;28;20044;-57
2022/01/22 14:11:35;;;;;;;1.95;1.02;;;17.80;57.90;;;;;;10515196;28;20032;-57
2022/01/22 14:16:44;;;;;;;2.55;1.00;;;17.80;57.90;;;;;;10483724;28;20032;-57
2022/01/22 14:21:56;;;;;;;2.45;1.20;;;17.80;57.90;;;;;;10480631;28;20032;-56
2022/01/22 14:26:57;;;;;;;2.20;1.48;;;17.80;57.80;;;;;;10513819;28;20031;-57
2022/01/22 14:32:00;;;;;;;1.92;1.00;;;17.80;57.80;;;;;;10479515;28;20451;-57
2022/01/22 14:37:06;;;;;;;2.33;1.20;;;17.80;57.80;;;;;;10509315;28;20027;-57
2022/01/22 14:47:28;;;;;;;3.88;1.67;;;17.70;57.90;;;;;;10498139;28;20444;-57
2022/01/22 14:52:29;;;;;;;2.97;1.13;;;17.80;57.80;;;;;;10513383;28;20093;-57
2022/01/22 14:57:36;;;;;;;2.80;1.08;;;17.80;57.70;;;;;;10482626;28;20500;-57
2022/01/22 15:02:39;;;;;;;2.10;1.10;;;17.80;57.70;;;;;;10505158;28;20032;-57
2022/01/22 15:07:42;;;;;;;3.15;1.08;;;17.80;57.60;;;;;;10522182;28;20472;-57
2022/01/22 15:12:43;;;;;;;2.42;1.00;;;17.80;57.70;;;;;;10521565;28;20032;-57
2022/01/22 15:22:52;;;;;;;3.50;1.67;;;17.80;57.60;;;;;;10481634;28;20037;-57
2022/01/22 15:27:55;;;;;;;2.50;1.42;;;17.80;57.50;;;;;;10480109;28;20111;-57
2022/01/22 15:33:01;;;;;;;3.22;1.67;;;17.80;57.50;;;;;;10505068;28;20051;-57
2022/01/22 15:38:02;;;;;;;3.33;1.48;;;17.90;57.50;;;;;;10481648;28;20028;-58
2022/01/22 15:43:04;;;;;;;2.88;1.30;;;17.80;57.50;;;;;;10479640;28;20028;-58
2022/01/22 15:48:06;;;;;;;2.42;1.25;;;17.80;57.40;;;;;;10492239;28;20034;-58
2022/01/22 15:53:06;;;;;;;2.08;1.45;;;17.80;57.40;;;;;;10496525;28;20035;-58
2022/01/22 15:58:07;;;;;;;2.95;1.95;;;17.80;57.40;;;;;;10489249;28;20051;-57
2022/01/22 16:03:10;;;;;;;3.70;2.13;;;17.70;57.50;;;;;;10489133;28;20074;-57
2022/01/22 16:08:12;;;;;;;2.30;1.60;;;17.80;57.50;;;;;;10512557;28;20036;-58
2022/01/22 16:13:15;;;;;;;4.25;1.73;;;17.80;57.40;;;;;;10510276;28;20037;-56
2022/01/22 16:18:15;;;;;;;3.05;1.65;;;17.80;57.40;;;;;;10496722;28;20028;-57
2022/01/22 16:23:16;;;;;;;3.05;1.90;;;17.80;57.40;;;;;;10485860;28;20103;-57
2022/01/22 16:28:17;;;;;;;3.17;1.80;;;17.80;57.30;;;;;;10492752;28;20492;-57
2022/01/22 16:33:18;;;;;;;3.15;1.92;;;17.90;57.40;;;;;;10517917;28;20042;-57
2022/01/22 16:38:21;;;;;;;2.70;1.70;;;17.80;57.30;;;;;;10465487;28;20021;-58
2022/01/22 16:43:33;;;;;;;3.58;1.95;;;17.90;57.20;;;;;;10491642;28;20111;-57
2022/01/22 16:59:24;;;;;;;3.33;2.10;;;17.90;57.20;;;;;;10514304;28;20114;-57
2022/01/22 17:04:34;;;;;;;3.22;1.80;;;17.90;57.20;;;;;;10507226;28;20055;-57
2022/01/22 17:14:35;;;;;;;3.05;2.03;;;17.80;57.30;;;;;;10492073;28;20028;-56
2022/01/22 17:19:38;;;;;;;3.45;2.13;;;17.80;57.20;;;;;;10498536;28;20070;-57
2022/01/22 17:24:39;;;;;;;4.60;2.05;;;17.80;57.30;;;;;;10496345;28;20055;-58
2022/01/22 17:29:42;;;;;;;4.38;2.25;;;17.80;57.20;;;;;;10523084;28;20039;-57
2022/01/22 17:34:43;;;;;;;3.20;2.22;;;17.80;57.20;;;;;;10520569;28;20055;-57
2022/01/22 17:39:43;;;;;;;4.25;2.03;;;17.90;57.20;;;;;;10501806;28;20024;-58
2022/01/22 17:44:48;;;;;;;3.05;1.80;;;17.90;57.20;;;;;;10483509;28;20111;-58
2022/01/22 17:49:50;;;;;;;2.80;2.13;;;17.90;57.20;;;;;;10500964;28;20032;-57
2022/01/22 17:54:50;;;;;;;3.70;1.95;;;17.80;57.20;;;;;;10506640;28;20028;-58
2022/01/22 17:59:51;;;;;;;6.80;2.58;;;17.90;57.20;;;;;;10489752;28;20037;-58
2022/01/22 18:04:58;;;;;;;3.70;2.10;;;17.80;57.20;;;;;;10535080;28;20055;-57
2022/01/22 18:09:59;;;;;;;3.22;2.78;;;17.80;57.20;;;;;;10523807;28;20175;-57
2022/01/22 18:15:00;;;;;;;3.45;2.30;;;17.80;57.10;;;;;;10496645;28;20028;-57
2022/01/22 18:20:01;;;;;;;3.53;2.05;;;17.90;57.00;;;;;;10492939;28;20547;-56
2022/01/22 18:25:03;;;;;;;4.38;2.38;;;17.90;56.90;;;;;;10510243;28;20043;-59
2022/01/22 18:30:05;;;;;;;3.67;2.13;;;17.90;56.70;;;;;;10523952;28;20039;-57
2022/01/22 18:35:06;;;;;;;4.25;2.60;;;17.90;56.70;;;;;;10512751;28;20056;-57
2022/01/22 18:40:08;;;;;;;4.28;2.42;;;17.90;56.80;;;;;;10486113;28;20020;-57
2022/01/22 18:45:10;;;;;;;5.43;2.92;;;17.90;56.90;;;;;;10491020;28;20536;-57
2022/01/22 18:50:12;;;;;;;3.70;2.75;;;17.90;56.90;;;;;;10532363;28;20085;-57
2022/01/22 18:55:15;;;;;;;3.72;2.63;;;17.90;57.00;;;;;;10484141;28;20032;-58
2022/01/22 19:00:18;;;;;;;4.57;2.80;;;17.80;56.90;;;;;;10482458;28;20444;-58
2022/01/22 19:05:19;;;;;;;3.47;2.72;;;17.80;57.00;;;;;;10501365;28;20034;-57
2022/01/22 19:10:20;;;;;;;4.05;2.40;;;17.80;57.00;;;;;;10505241;28;20028;-59
2022/01/22 19:15:21;;;;;;;4.40;2.65;;;17.80;56.90;;;;;;10485013;28;20036;-59
2022/01/22 19:20:21;;;;;;;4.22;2.45;;;17.90;56.90;;;;;;10504241;28;20477;-58
2022/01/22 19:30:23;;;;;;;3.67;2.20;;;17.80;57.20;;;;;;10499819;28;20132;-60
2022/01/22 19:35:24;;;;;;;3.42;2.58;;;17.90;57.40;;;;;;10499209;28;20515;-56
2022/01/22 19:40:28;;;;;;;3.97;2.55;;;17.90;57.50;;;;;;10501332;28;20024;-57
2022/01/22 19:45:30;;;;;;;6.22;2.63;;;17.90;57.40;;;;;;10504837;28;20035;-57
2022/01/22 19:50:32;;;;;;;4.25;2.80;;;17.80;57.50;;;;;;10529819;28;20043;-55
2022/01/22 19:55:34;;;;;;;4.05;2.35;;;17.80;57.50;;;;;;10487777;28;20021;-57
2022/01/22 20:00:37;;;;;;;4.47;2.65;;;17.80;57.50;;;;;;10508945;28;20035;-57
2022/01/22 20:05:38;;;;;;;4.63;3.25;;;17.80;57.40;;;;;;10511514;28;20099;-56
2022/01/22 20:10:39;;;;;;;3.83;2.22;;;17.90;57.00;;;;;;10478206;28;20082;-57
2022/01/22 20:15:41;;;;;;;4.63;2.63;;;18.00;56.90;;;;;;10505207;28;20488;-56
2022/01/22 20:20:44;;;;;;;4.15;2.55;;;18.00;56.80;;;;;;10520047;28;20032;-56
2022/01/22 20:25:44;;;;;;;3.67;2.83;;;18.00;56.80;;;;;;10517653;28;20034;-57
2022/01/22 20:30:45;;;;;;;5.00;2.90;;;17.90;56.90;;;;;;10504128;28;20487;-56
2022/01/22 20:35:47;;;;;;;4.75;2.85;;;17.90;56.90;;;;;;10507392;28;20146;-57
2022/01/22 20:40:48;;;;;;;4.40;2.90;;;17.90;57.10;;;;;;10511089;28;20062;-57
2022/01/22 20:45:49;;;;;;;3.80;2.55;;;17.90;57.00;;;;;;10478375;28;20066;-57
2022/01/22 20:50:49;;;;;;;3.40;2.65;;;17.90;57.00;;;;;;10507363;28;20115;-56
2022/01/22 20:55:50;;;;;;;5.32;3.20;;;17.90;56.90;;;;;;10505131;28;20037;-57
2022/01/22 21:00:51;;;;;;;5.55;3.30;;;17.90;56.90;;;;;;10476484;28;20025;-57
2022/01/22 21:05:52;;;;;;;3.50;2.60;;;18.00;56.70;;;;;;10487926;28;20024;-56
2022/01/22 21:10:53;;;;;;;5.07;2.70;;;18.00;56.50;;;;;;10507573;28;20024;-57
2022/01/22 21:15:55;;;;;;;3.50;2.55;;;18.00;56.50;;;;;;10470673;28;20032;-57
2022/01/22 21:20:56;;;;;;;3.58;2.47;;;18.10;56.40;;;;;;10491220;28;20410;-57
2022/01/22 21:25:58;;;;;;;5.65;2.58;;;18.00;56.60;;;;;;10493128;28;20032;-56
2022/01/22 21:30:59;;;;;;;3.75;2.22;;;18.00;56.60;;;;;;10496792;28;20024;-57
2022/01/22 21:36:05;;;;;;;3.20;2.50;;;18.00;56.60;;;;;;10516622;28;20060;-57
2022/01/22 21:41:07;;;;;;;3.90;2.45;;;18.00;56.60;;;;;;10502075;28;20037;-57
2022/01/22 21:46:07;;;;;;;4.32;2.42;;;18.00;56.50;;;;;;10493880;28;20476;-55
2022/01/22 21:51:08;;;;;;;3.95;3.13;;;18.00;56.60;;;;;;10509019;28;20047;-56
2022/01/22 21:56:09;;;;;;;3.70;2.70;;;18.00;56.60;;;;;;10498177;28;20127;-56
2022/01/22 22:01:11;;;;;;;5.20;2.90;;;18.00;56.60;;;;;;10481699;28;20479;-57
2022/01/22 22:06:13;;;;;;;4.75;3.00;;;17.90;56.70;;;;;;10511938;28;20032;-57
2022/01/22 22:11:14;;;;;;;3.08;2.10;;;17.90;56.70;;;;;;10511839;28;20028;-57
2022/01/22 22:16:15;;;;;;;4.60;3.10;;;17.90;56.80;;;;;;10503220;28;20025;-57
2022/01/22 22:21:16;;;;;;;3.55;2.42;;;17.90;56.70;;;;;;10518144;28;20024;-56
2022/01/22 22:26:17;;;;;;;5.25;3.00;;;17.90;56.80;;;;;;10538545;28;20024;-56
2022/01/22 22:31:18;;;;;;;3.63;2.78;;;17.90;56.70;;;;;;10497149;28;20081;-57
2022/01/22 22:36:19;;;;;;;5.18;2.88;;;17.90;56.70;;;;;;10471644;28;20040;-57
2022/01/22 22:41:23;;;;;;;5.25;2.95;;;17.90;56.70;;;;;;10523922;28;20044;-57
2022/01/22 22:46:24;;;;;;;5.30;3.13;;;17.90;56.70;;;;;;10528131;28;20401;-57
2022/01/22 22:51:25;;;;;;;3.70;2.80;;;17.90;56.70;;;;;;10521331;28;20038;-56
2022/01/22 22:56:26;;;;;;;4.30;3.25;;;17.90;56.70;;;;;;10480766;28;20181;-57
2022/01/22 23:01:27;;;;;;;3.85;2.78;;;17.90;56.70;;;;;;10487742;28;20069;-57
2022/01/22 23:06:28;;;;;;;3.60;2.55;;;18.00;56.70;;;;;;10539655;28;20491;-57
2022/01/22 23:11:35;;;;;;;3.67;2.53;;;17.90;56.80;;;;;;10518361;28;20020;-56
2022/01/22 23:21:58;;;;;;;3.42;2.45;;;17.90;56.70;;;;;;10483004;28;20041;-57
2022/01/22 23:26:59;;;;;;;4.25;2.95;;;17.90;56.70;;;;;;10480503;28;20028;-55
2022/01/22 23:32:00;;;;;;;3.30;2.53;;;17.90;56.80;;;;;;10466265;28;20476;-57
2022/01/22 23:37:29;;;;;;;3.67;2.72;;;18.00;56.70;;;;;;10508085;28;20078;-56
2022/01/22 23:46:12;;;;;;;4.30;3.15;;;17.90;56.70;;;;;;10507659;28;20044;-57
2022/01/22 23:58:27;;;;;;;4.13;2.88;;;17.90;56.70;;;;;;10482408;28;20033;-56
